Airport View

Enter AWOS ICAO identifier for current METAR.

ex. KFNL

KHLN 210053Z 14005KT 10SM OVC060 14/05 A2994 RMK AO2 SLP144 T01390050

21 Sep 2019 01:04

Phone: 406-443-4317

Other Area AWOS: KGTF - KBZN - KGFA - KEKS

TAF KHLN 202343Z 2100/2124 VRB05KT P6SM VCSH OVC050 TEMPO 2100/2104 5SM -RA BR SCT020 OVC040 FM210400 29007KT 5SM -SHRA BR BKN020 FM211200 VRB04KT P6SM FEW030 SCT080